NO-0064 weather

Svenningdal Airstrip
Nordland, Norway

Public forecast

Using degrees Celsius for public forecast. Weather courtesy of forecast.io.

METAR (pilot weather report)

Closest report is Mosjøen Airport (Kjærstad), 21.0 nm (38.9 km) NNW. Retrieved 2019/07/15 17:20 UTC (0 seconds ago):

ENMS 151720Z 35005KT 9999 SCT028 BKN038 12/06 Q1013 RMK WIND 412FT 31003KT 250V010

TAF (pilot weather forecast)

Forecast is more than 12 hours old.

Closest forecast is Hemavan Airport, 46.9 nm (86.8 km) ENE. Retrieved 2009/10/12 22:40 UTC (10 years ago):

TAF TAF LTCC 122240Z 13 SASN33 ESWI 130020 RRA METAR ESUT 130020Z AUTO 00000KT 9999NDV NCD M08/M10 Q1022